Time;durP1;ratioP1;P1;durP2;ratioP2;P2;SDS_P1;SDS_P2;PMS_P1;PMS_P2;Temp;Humidity;BMP_temperature;BMP_pressure;BME280_temperature;BME280_humidity;BME280_pressure;Samples;Min_cycle;Max_cycle;Signal;HPM_P1;HPM_P2
2023/06/17 00:00:47;;;;;;;0.53;0.50;;;;;;;18.73;100.00;94456.50;5073698;28;20815;-67
2023/06/17 00:03:15;;;;;;;1.57;0.80;;;;;;;18.61;100.00;94459.22;5074960;28;21020;-66
2023/06/17 00:05:43;;;;;;;0.83;0.83;;;;;;;18.22;100.00;94447.31;5075794;28;20445;-66
2023/06/17 00:08:12;;;;;;;0.83;0.57;;;;;;;18.01;100.00;94451.25;5075474;28;20445;-66
2023/06/17 00:10:40;;;;;;;0.50;0.50;;;;;;;17.80;100.00;94450.59;5075078;28;20477;-65
2023/06/17 00:13:08;;;;;;;0.50;0.40;;;;;;;17.93;100.00;94454.84;5062117;28;20503;-65
2023/06/17 00:15:38;;;;;;;0.60;0.50;;;;;;;18.07;100.00;94453.38;5075664;28;20469;-65
2023/06/17 00:18:07;;;;;;;0.70;0.70;;;;;;;18.58;100.00;94451.84;5075024;28;20442;-65
2023/06/17 00:20:36;;;;;;;0.83;0.83;;;;;;;18.68;100.00;94448.69;5075313;28;20495;-65
2023/06/17 00:23:06;;;;;;;0.53;0.53;;;;;;;18.83;100.00;94437.22;5075041;28;20534;-65
2023/06/17 00:25:34;;;;;;;0.50;0.50;;;;;;;18.64;100.00;94442.47;5074985;28;20492;-64
2023/06/17 00:28:02;;;;;;;0.70;0.70;;;;;;;18.36;100.00;94433.56;5075258;28;20473;-65
2023/06/17 00:30:31;;;;;;;3.10;0.77;;;;;;;18.14;100.00;94432.13;5074679;28;20441;-64
2023/06/17 00:33:00;;;;;;;0.60;0.60;;;;;;;18.03;100.00;94446.34;5074618;28;20498;-65
2023/06/17 00:35:29;;;;;;;2.80;0.90;;;;;;;18.22;100.00;94441.16;5074881;28;21073;-64
2023/06/17 00:37:57;;;;;;;0.93;0.47;;;;;;;18.54;100.00;94448.31;5074085;28;21019;-66
2023/06/17 00:40:25;;;;;;;0.87;0.87;;;;;;;18.87;100.00;94442.72;5074496;28;20953;-64
2023/06/17 00:42:54;;;;;;;0.50;0.30;;;;;;;18.90;100.00;94440.09;5074784;28;20504;-65
2023/06/17 00:45:22;;;;;;;0.50;0.30;;;;;;;19.01;100.00;94443.06;5074682;28;20969;-65
2023/06/17 00:47:51;;;;;;;0.60;0.40;;;;;;;19.10;100.00;94432.19;5074640;28;20445;-65
2023/06/17 00:50:21;;;;;;;0.60;0.40;;;;;;;19.13;100.00;94424.22;5074421;28;20818;-66
2023/06/17 00:52:53;;;;;;;0.50;0.43;;;;;;;19.17;100.00;94424.31;5074641;28;20465;-65
2023/06/17 00:55:22;;;;;;;0.60;0.60;;;;;;;19.24;100.00;94437.94;5074100;28;20470;-65
2023/06/17 00:57:53;;;;;;;0.70;0.30;;;;;;;19.26;100.00;94433.78;5074493;28;20815;-66
2023/06/17 01:00:21;;;;;;;0.43;0.30;;;;;;;19.25;100.00;94434.13;5074344;28;20499;-65
2023/06/17 01:02:50;;;;;;;0.67;0.67;;;;;;;19.24;100.00;94430.66;5074476;28;20469;-65
2023/06/17 01:05:19;;;;;;;0.40;0.30;;;;;;;19.17;100.00;94422.41;5060834;28;20520;-65
2023/06/17 01:07:59;;;;;;;1.63;0.50;;;;;;;18.59;100.00;94437.31;5074283;28;20782;-64
2023/06/17 01:10:35;;;;;;;0.63;0.40;;;;;;;18.64;100.00;94436.31;5073884;28;20465;-65
2023/06/17 01:13:05;;;;;;;0.60;0.53;;;;;;;18.21;100.00;94436.94;5073191;28;20886;-65
2023/06/17 01:15:35;;;;;;;1.83;0.70;;;;;;;18.07;100.00;94436.50;5074071;28;20511;-65
2023/06/17 01:18:04;;;;;;;0.50;0.50;;;;;;;17.78;100.00;94424.88;5074147;28;20455;-65
2023/06/17 01:20:33;;;;;;;0.97;0.97;;;;;;;17.66;100.00;94432.16;5073890;28;20434;-65
2023/06/17 01:23:05;;;;;;;2.50;0.60;;;;;;;17.61;100.00;94427.78;5073927;28;20538;-64
2023/06/17 01:25:35;;;;;;;1.73;0.77;;;;;;;17.67;100.00;94429.16;5073902;28;20495;-64
2023/06/17 01:28:15;;;;;;;1.00;0.93;;;;;;;17.60;100.00;94431.63;5048254;28;20939;-64
2023/06/17 01:30:44;;;;;;;0.83;0.80;;;;;;;17.42;100.00;94357.09;5074402;28;20540;-64
2023/06/17 01:33:13;;;;;;;0.90;0.50;;;;;;;18.09;100.00;94431.59;5082176;28;20441;-64
2023/06/17 01:35:49;;;;;;;0.60;0.50;;;;;;;18.15;100.00;94432.91;5086602;28;20442;-65
2023/06/17 01:38:22;;;;;;;2.67;1.17;;;;;;;18.31;100.00;94425.75;5073464;28;20483;-65
2023/06/17 01:40:58;;;;;;;2.10;0.83;;;;;;;18.09;100.00;94423.56;5073733;28;20430;-66
2023/06/17 01:43:28;;;;;;;1.07;0.43;;;;;;;17.94;100.00;94427.69;5073563;28;20465;-64
2023/06/17 01:45:58;;;;;;;0.80;0.63;;;;;;;17.72;100.00;94431.59;5073653;28;20438;-65
2023/06/17 01:48:26;;;;;;;1.70;1.60;;;;;;;17.68;100.00;94421.91;5073273;28;20470;-63
2023/06/17 01:50:55;;;;;;;0.90;0.90;;;;;;;17.61;100.00;94408.25;5073529;28;20442;-65
2023/06/17 01:53:24;;;;;;;0.50;0.40;;;;;;;17.56;100.00;94419.97;5073392;28;20437;-65
2023/06/17 01:55:54;;;;;;;2.50;2.40;;;;;;;17.75;100.00;94419.44;5073502;28;20473;-67
2023/06/17 01:58:23;;;;;;;1.37;1.13;;;;;;;17.52;100.00;94362.03;5073212;28;20438;-66
2023/06/17 02:00:51;;;;;;;0.50;0.40;;;;;;;18.05;100.00;94418.06;5073119;28;20934;-65
2023/06/17 02:03:20;;;;;;;0.47;0.30;;;;;;;18.18;100.00;94426.88;5072517;28;20477;-65
2023/06/17 02:05:48;;;;;;;0.50;0.30;;;;;;;18.44;100.00;94431.84;5073173;28;20961;-62
2023/06/17 02:08:17;;;;;;;0.40;0.30;;;;;;;18.36;100.00;94428.97;5073004;28;20441;-66
2023/06/17 02:10:45;;;;;;;6.20;1.90;;;;;;;18.21;100.00;94423.53;5072755;28;20492;-65
2023/06/17 02:13:15;;;;;;;3.90;1.30;;;;;;;18.09;100.00;94418.94;5072973;28;20441;-65
2023/06/17 02:15:44;;;;;;;0.90;0.63;;;;;;;18.17;100.00;94420.72;5073077;28;20442;-65
2023/06/17 02:18:14;;;;;;;1.13;1.13;;;;;;;18.12;100.00;94375.38;5072711;28;20584;-65
2023/06/17 02:20:42;;;;;;;0.60;0.47;;;;;;;18.64;100.00;94417.50;5072952;28;20441;-66
2023/06/17 02:23:10;;;;;;;0.60;0.40;;;;;;;18.80;100.00;94411.06;5046537;28;20520;-65
2023/06/17 02:25:39;;;;;;;0.50;0.30;;;;;;;19.03;100.00;94411.28;5072237;28;20445;-65
2023/06/17 02:28:08;;;;;;;0.43;0.40;;;;;;;19.16;100.00;94414.69;5072900;28;20503;-65
2023/06/17 02:30:38;;;;;;;9.53;0.60;;;;;;;19.19;100.00;94412.09;5072619;28;20441;-65
2023/06/17 02:33:07;;;;;;;0.57;0.50;;;;;;;18.66;100.00;94418.72;5072568;28;20498;-65
2023/06/17 02:35:35;;;;;;;0.50;0.30;;;;;;;19.00;100.00;94418.13;5072786;28;20537;-65
2023/06/17 02:38:04;;;;;;;0.67;0.40;;;;;;;18.95;100.00;94420.28;5072954;28;20469;-66
2023/06/17 02:40:32;;;;;;;0.50;0.40;;;;;;;18.92;100.00;94424.44;5072317;28;21156;-65
2023/06/17 02:43:00;;;;;;;0.53;0.50;;;;;;;18.71;100.00;94423.84;5072334;28;20506;-66
2023/06/17 02:45:29;;;;;;;0.50;0.40;;;;;;;18.93;100.00;94423.31;5072399;28;20474;-65
2023/06/17 02:47:58;;;;;;;0.40;0.30;;;;;;;19.19;100.00;94419.38;5072203;28;20441;-66
2023/06/17 02:50:27;;;;;;;0.87;0.87;;;;;;;18.99;100.00;94427.31;5071564;28;20425;-65
2023/06/17 02:52:56;;;;;;;0.67;0.53;;;;;;;19.16;100.00;94425.44;5072341;28;20436;-66
2023/06/17 02:55:25;;;;;;;0.50;0.30;;;;;;;19.32;100.00;94424.34;5071933;28;20875;-65
2023/06/17 02:57:54;;;;;;;0.70;0.40;;;;;;;18.64;100.00;94423.66;5072126;28;20444;-66
2023/06/17 03:00:22;;;;;;;1.70;1.63;;;;;;;18.21;100.00;94428.88;5071554;28;20433;-66
2023/06/17 03:02:51;;;;;;;1.10;1.00;;;;;;;17.76;100.00;94437.84;5071821;28;20465;-66
2023/06/17 03:05:22;;;;;;;2.20;0.97;;;;;;;17.55;100.00;94431.03;5072162;28;20977;-65
2023/06/17 03:07:51;;;;;;;1.03;1.03;;;;;;;17.53;100.00;94434.03;5071989;28;20498;-63
2023/06/17 03:10:20;;;;;;;0.60;0.47;;;;;;;17.56;100.00;94432.59;5071700;28;20988;-65
2023/06/17 03:12:49;;;;;;;1.00;0.90;;;;;;;17.49;100.00;94410.91;5071822;28;20438;-64
2023/06/17 03:15:18;;;;;;;0.50;0.30;;;;;;;17.67;100.00;94428.38;5071929;28;20495;-64
2023/06/17 03:17:46;;;;;;;1.63;0.63;;;;;;;17.86;100.00;94425.88;5071836;28;20434;-64
2023/06/17 03:20:15;;;;;;;0.60;0.50;;;;;;;17.90;100.00;94426.81;5072004;28;20440;-64
2023/06/17 03:22:45;;;;;;;0.93;0.93;;;;;;;17.97;100.00;94432.38;5071794;28;20568;-64
2023/06/17 03:25:13;;;;;;;0.90;0.50;;;;;;;17.91;100.00;94428.34;5071472;28;20485;-64
2023/06/17 03:27:41;;;;;;;0.70;0.70;;;;;;;17.78;100.00;94426.81;5071632;28;20457;-64
2023/06/17 03:30:10;;;;;;;1.00;1.00;;;;;;;17.84;100.00;94427.34;5071383;28;20516;-64
2023/06/17 03:32:39;;;;;;;1.87;0.80;;;;;;;17.77;100.00;94423.34;5071262;28;20466;-65
2023/06/17 03:35:08;;;;;;;1.07;0.97;;;;;;;17.91;100.00;94422.22;5071264;28;20434;-64
2023/06/17 03:37:36;;;;;;;0.70;0.53;;;;;;;17.94;100.00;94419.63;5071635;28;20445;-64
2023/06/17 03:40:08;;;;;;;0.97;0.97;;;;;;;18.16;100.00;94419.19;5071706;28;21034;-64
2023/06/17 03:42:37;;;;;;;0.60;0.53;;;;;;;18.33;100.00;94418.13;5072002;28;20461;-65
2023/06/17 03:45:06;;;;;;;0.87;0.83;;;;;;;18.69;100.00;94418.06;5080984;28;20993;-63
2023/06/17 03:47:34;;;;;;;2.70;0.97;;;;;;;18.66;100.00;94416.06;5073301;28;20520;-63
2023/06/17 03:50:03;;;;;;;0.40;0.30;;;;;;;19.01;100.00;94411.63;5071128;28;20453;-63
2023/06/17 03:52:31;;;;;;;1.23;1.13;;;;;;;19.02;100.00;94423.16;5071556;28;20807;-63
2023/06/17 03:55:00;;;;;;;0.50;0.50;;;;;;;19.26;100.00;94430.28;5071099;28;20520;-62
2023/06/17 03:57:29;;;;;;;1.13;0.60;;;;;;;18.96;100.00;94427.22;5071547;28;20495;-63
2023/06/17 03:59:57;;;;;;;0.90;0.80;;;;;;;19.01;100.00;94430.44;5071352;28;20441;-63
2023/06/17 04:02:26;;;;;;;0.90;0.50;;;;;;;19.41;100.00;94433.03;5071330;28;20484;-63
2023/06/17 04:04:54;;;;;;;1.80;0.80;;;;;;;19.41;100.00;94430.34;5071519;28;20499;-63
2023/06/17 04:07:23;;;;;;;1.73;0.90;;;;;;;19.26;100.00;94435.66;5071487;28;20445;-63
2023/06/17 04:09:51;;;;;;;0.57;0.53;;;;;;;19.02;100.00;94423.94;5069297;28;20461;-64
2023/06/17 04:12:24;;;;;;;0.70;0.70;;;;;;;19.16;100.00;94434.28;5071418;28;20962;-64
2023/06/17 04:14:54;;;;;;;0.70;0.53;;;;;;;19.24;100.00;94444.09;5070510;28;20438;-63
2023/06/17 04:17:23;;;;;;;0.80;0.80;;;;;;;19.35;100.00;94441.69;5071599;28;20504;-64
2023/06/17 04:19:54;;;;;;;1.97;0.60;;;;;;;19.31;100.00;94440.78;5045284;28;20472;-64
2023/06/17 04:22:23;;;;;;;2.00;0.53;;;;;;;19.56;100.00;94434.16;5070727;28;20502;-64
2023/06/17 04:24:55;;;;;;;0.60;0.40;;;;;;;19.69;100.00;94432.97;5070959;28;21086;-64
2023/06/17 04:27:24;;;;;;;0.90;0.73;;;;;;;19.80;100.00;94431.31;5070674;28;20441;-63
2023/06/17 04:29:56;;;;;;;0.70;0.50;;;;;;;19.76;100.00;94432.38;5070807;28;20499;-64
2023/06/17 04:32:24;;;;;;;0.77;0.77;;;;;;;19.72;100.00;94429.56;5070528;28;20491;-64
2023/06/17 04:34:53;;;;;;;0.70;0.63;;;;;;;19.65;100.00;94434.78;5071351;28;20434;-64
2023/06/17 04:37:22;;;;;;;0.43;0.30;;;;;;;19.76;100.00;94446.56;5071016;28;20434;-64
2023/06/17 04:39:52;;;;;;;1.67;1.57;;;;;;;19.66;100.00;94439.03;5071055;28;20442;-64
2023/06/17 04:42:21;;;;;;;0.60;0.60;;;;;;;19.67;100.00;94437.91;5070581;28;20935;-64
2023/06/17 04:44:49;;;;;;;2.13;1.13;;;;;;;19.50;100.00;94457.06;5070363;28;20850;-63
2023/06/17 04:47:20;;;;;;;1.40;1.30;;;;;;;19.33;100.00;94455.44;5071616;28;20461;-64
2023/06/17 04:49:51;;;;;;;0.53;0.43;;;;;;;19.55;100.00;94460.28;5074122;28;20437;-64
2023/06/17 04:52:20;;;;;;;0.70;0.57;;;;;;;19.51;100.00;94464.00;5073508;28;20437;-64
2023/06/17 04:54:48;;;;;;;1.13;1.13;;;;;;;19.75;100.00;94468.44;5074495;28;20461;-64
2023/06/17 04:57:17;;;;;;;0.50;0.40;;;;;;;19.98;100.00;94464.78;5048508;28;20484;-64
2023/06/17 04:59:45;;;;;;;1.10;0.67;;;;;;;19.96;100.00;94463.56;5073759;28;20438;-61
2023/06/17 05:02:14;;;;;;;0.50;0.30;;;;;;;20.07;100.00;94478.81;5074416;28;20878;-63
2023/06/17 05:04:44;;;;;;;0.70;0.53;;;;;;;20.04;100.00;94476.81;5074326;28;20893;-62
2023/06/17 05:07:12;;;;;;;0.97;0.40;;;;;;;20.16;100.00;94481.34;5073793;28;20437;-62
2023/06/17 05:09:40;;;;;;;0.70;0.50;;;;;;;20.11;100.00;94484.31;5073560;28;20509;-62
2023/06/17 05:12:09;;;;;;;1.33;1.33;;;;;;;19.88;100.00;94480.66;5073803;28;21016;-63
2023/06/17 05:14:37;;;;;;;1.80;0.57;;;;;;;20.03;100.00;94480.66;5073823;28;20484;-62
2023/06/17 05:17:06;;;;;;;0.70;0.60;;;;;;;19.91;100.00;94501.50;5074370;28;20465;-63
2023/06/17 05:19:34;;;;;;;11.07;1.10;;;;;;;19.98;100.00;94472.06;5073943;28;20487;-61
2023/06/17 05:22:04;;;;;;;0.73;0.70;;;;;;;19.70;100.00;94485.59;5073718;28;20461;-61
2023/06/17 05:24:32;;;;;;;0.50;0.40;;;;;;;19.89;100.00;94482.22;5073822;28;20525;-61
2023/06/17 05:27:00;;;;;;;0.60;0.57;;;;;;;19.94;100.00;94485.41;5073452;28;20934;-62
2023/06/17 05:29:29;;;;;;;3.17;0.77;;;;;;;19.98;100.00;94489.00;5073940;28;20483;-62
2023/06/17 05:31:58;;;;;;;3.90;0.50;;;;;;;20.03;100.00;94483.34;5074125;28;20515;-62
2023/06/17 05:34:26;;;;;;;0.60;0.50;;;;;;;20.18;100.00;94487.16;5073900;28;20887;-62
2023/06/17 05:36:54;;;;;;;1.33;0.93;;;;;;;20.40;100.00;94491.13;5073902;28;20445;-62
2023/06/17 05:39:24;;;;;;;0.90;0.90;;;;;;;20.37;100.00;94481.84;5073465;28;20516;-61
2023/06/17 05:41:52;;;;;;;1.57;1.47;;;;;;;20.36;100.00;94495.66;5073349;28;20803;-60
2023/06/17 05:44:21;;;;;;;1.30;1.20;;;;;;;19.88;100.00;94492.22;5060674;28;20445;-62
2023/06/17 05:46:49;;;;;;;0.50;0.50;;;;;;;20.07;100.00;94492.28;5073121;28;20477;-61
2023/06/17 05:49:17;;;;;;;1.03;1.00;;;;;;;20.04;100.00;94492.19;5073222;28;20946;-63
2023/06/17 05:51:46;;;;;;;1.97;0.67;;;;;;;20.08;100.00;94495.75;5073155;28;20949;-62
2023/06/17 05:54:14;;;;;;;1.27;1.27;;;;;;;20.11;100.00;94495.06;5073393;28;20517;-61
2023/06/17 05:56:44;;;;;;;1.17;1.07;;;;;;;19.98;100.00;94488.22;5073823;28;20441;-61
2023/06/17 05:59:12;;;;;;;0.70;0.70;;;;;;;20.22;100.00;94499.56;5072682;28;20479;-61
2023/06/17 06:01:40;;;;;;;2.00;1.00;;;;;;;20.38;100.00;94496.88;5073075;28;20500;-61
2023/06/17 06:04:08;;;;;;;1.17;1.07;;;;;;;20.58;100.00;94500.38;5073220;28;20438;-61
2023/06/17 06:06:37;;;;;;;0.53;0.50;;;;;;;20.60;100.00;94500.81;5072498;28;20473;-61
2023/06/17 06:09:05;;;;;;;1.43;0.70;;;;;;;20.59;100.00;94501.94;5072396;28;20437;-61
2023/06/17 06:11:34;;;;;;;1.90;1.50;;;;;;;20.33;100.00;94491.75;5072197;28;20442;-62
2023/06/17 06:14:04;;;;;;;1.33;1.17;;;;;;;19.81;100.00;94497.38;5072930;28;20434;-59
2023/06/17 06:16:32;;;;;;;6.67;1.80;;;;;;;19.98;100.00;94491.69;5072689;28;20437;-58
2023/06/17 06:19:01;;;;;;;0.57;0.53;;;;;;;20.37;100.00;94502.59;5072748;28;20434;-58
2023/06/17 06:21:29;;;;;;;0.70;0.70;;;;;;;20.63;100.00;94494.72;5072785;28;20507;-59
2023/06/17 06:23:59;;;;;;;5.90;1.10;;;;;;;20.95;100.00;94490.78;5072619;28;20446;-58
2023/06/17 06:26:27;;;;;;;1.23;0.70;;;;;;;21.19;100.00;94504.00;5072635;28;20487;-59
2023/06/17 06:28:55;;;;;;;1.10;1.10;;;;;;;21.15;100.00;94505.84;5072373;28;20950;-59
2023/06/17 06:31:25;;;;;;;0.60;0.60;;;;;;;21.31;100.00;94511.16;5072462;28;20969;-57
2023/06/17 06:33:53;;;;;;;1.27;0.90;;;;;;;21.45;100.00;94504.09;5072913;28;20849;-58
2023/06/17 06:36:22;;;;;;;1.40;1.30;;;;;;;21.58;100.00;94503.97;5072338;28;20883;-58
2023/06/17 06:38:50;;;;;;;1.63;1.43;;;;;;;21.96;100.00;94501.97;5071553;28;20449;-58
2023/06/17 06:41:18;;;;;;;0.50;0.40;;;;;;;22.16;100.00;94499.19;5072204;28;20472;-58
2023/06/17 06:43:46;;;;;;;2.30;0.50;;;;;;;22.29;100.00;94490.53;5072336;28;20437;-58
2023/06/17 06:46:15;;;;;;;1.73;1.37;;;;;;;22.13;100.00;94489.91;5072177;28;20469;-58
2023/06/17 06:48:45;;;;;;;1.20;1.10;;;;;;;21.77;100.00;94493.13;5072093;28;20513;-58
2023/06/17 06:51:13;;;;;;;1.27;1.17;;;;;;;22.04;100.00;94492.06;5072365;28;20830;-57
2023/06/17 06:53:42;;;;;;;1.00;1.00;;;;;;;22.11;100.00;94487.56;5072171;28;20871;-58
2023/06/17 06:56:10;;;;;;;0.77;0.77;;;;;;;22.36;100.00;94479.84;5072220;28;20445;-58
2023/06/17 06:58:38;;;;;;;0.70;0.63;;;;;;;22.56;100.00;94485.91;5071570;28;20482;-58
2023/06/17 07:01:07;;;;;;;0.60;0.43;;;;;;;22.63;100.00;94486.03;5071848;28;20588;-58
2023/06/17 07:03:36;;;;;;;0.63;0.63;;;;;;;22.97;100.00;94481.47;5058367;28;20528;-58
2023/06/17 07:06:06;;;;;;;1.00;1.00;;;;;;;22.77;100.00;94474.66;5070896;28;20503;-57
2023/06/17 07:08:34;;;;;;;1.10;1.00;;;;;;;22.64;100.00;94482.97;5071494;28;21003;-58
2023/06/17 07:11:03;;;;;;;0.63;0.53;;;;;;;22.84;100.00;94478.22;5070767;28;20480;-58
2023/06/17 07:13:31;;;;;;;0.93;0.93;;;;;;;22.69;100.00;94479.94;5071592;28;20529;-58
2023/06/17 07:15:59;;;;;;;0.77;0.77;;;;;;;22.92;100.00;94473.69;5071119;28;20521;-58
2023/06/17 07:18:28;;;;;;;0.63;0.50;;;;;;;22.64;100.00;94477.56;5071684;28;20445;-58
2023/06/17 07:20:56;;;;;;;1.07;1.00;;;;;;;22.65;100.00;94479.13;5071171;28;20477;-57
2023/06/17 07:23:26;;;;;;;1.07;1.07;;;;;;;22.67;100.00;94476.06;5071739;28;20444;-57
2023/06/17 07:25:54;;;;;;;1.37;0.90;;;;;;;22.55;100.00;94473.56;5071048;28;20615;-57
2023/06/17 07:28:23;;;;;;;0.97;0.80;;;;;;;22.73;100.00;94472.69;5071503;28;20449;-57
2023/06/17 07:30:51;;;;;;;0.40;0.30;;;;;;;23.04;100.00;94474.25;5071508;28;20498;-57
2023/06/17 07:33:21;;;;;;;1.43;0.93;;;;;;;23.02;100.00;94481.16;5071298;28;20477;-58
2023/06/17 07:35:49;;;;;;;6.23;3.90;;;;;;;23.21;100.00;94478.28;5071604;28;20457;-58
2023/06/17 07:38:17;;;;;;;0.90;0.90;;;;;;;23.09;100.00;94478.53;5071237;28;20434;-58
2023/06/17 07:40:48;;;;;;;1.30;0.60;;;;;;;23.37;100.00;94465.38;5071439;28;20468;-60
2023/06/17 07:43:16;;;;;;;3.40;1.23;;;;;;;23.66;100.00;94467.19;5071851;28;20437;-60
2023/06/17 07:45:44;;;;;;;0.77;0.57;;;;;;;23.72;100.00;94473.84;5071140;28;20437;-60
2023/06/17 07:48:13;;;;;;;1.63;1.33;;;;;;;23.98;100.00;94472.91;5071309;28;20984;-59
2023/06/17 07:50:41;;;;;;;1.00;0.90;;;;;;;23.90;100.00;94471.28;5071035;28;20437;-60
2023/06/17 07:53:09;;;;;;;2.10;0.67;;;;;;;23.98;100.00;94478.34;5071403;28;20815;-59
2023/06/17 07:55:39;;;;;;;0.80;0.80;;;;;;;24.00;100.00;94470.59;5071124;28;20442;-59
2023/06/17 07:58:09;;;;;;;1.53;1.43;;;;;;;23.85;100.00;94469.72;5071059;28;20445;-59
2023/06/17 08:00:37;;;;;;;0.50;0.50;;;;;;;24.33;100.00;94470.50;5063077;28;21000;-59
2023/06/17 08:03:06;;;;;;;1.50;1.40;;;;;;;24.30;98.55;94473.97;5066083;28;20441;-60
2023/06/17 08:05:36;;;;;;;0.97;0.83;;;;;;;24.19;100.00;94475.81;5070679;28;20942;-59
2023/06/17 08:08:04;;;;;;;1.10;1.10;;;;;;;24.08;100.00;94474.19;5070661;28;20473;-59
2023/06/17 08:10:33;;;;;;;0.83;0.83;;;;;;;24.24;100.00;94480.09;5070924;28;20482;-60
2023/06/17 08:13:02;;;;;;;0.73;0.73;;;;;;;24.25;99.97;94481.66;5071206;28;20908;-60
2023/06/17 08:15:31;;;;;;;0.80;0.70;;;;;;;24.47;96.28;94461.69;5071512;28;20441;-59
2023/06/17 08:18:00;;;;;;;0.60;0.50;;;;;;;24.73;93.35;94471.53;5066452;28;20954;-59
2023/06/17 08:20:28;;;;;;;0.67;0.67;;;;;;;24.41;90.31;94476.75;5062724;28;20433;-59
2023/06/17 08:22:56;;;;;;;0.80;0.80;;;;;;;24.52;94.33;94462.13;5074281;28;20445;-59
2023/06/17 08:25:25;;;;;;;0.83;0.83;;;;;;;24.42;90.79;94470.16;5075244;28;20442;-60
2023/06/17 08:27:53;;;;;;;1.30;0.97;;;;;;;24.51;92.39;94463.28;5074324;28;20520;-59
2023/06/17 08:30:21;;;;;;;0.77;0.73;;;;;;;24.68;91.57;94472.66;5075009;28;20841;-58
2023/06/17 08:32:52;;;;;;;0.80;0.80;;;;;;;23.83;88.39;94471.25;5074457;28;20959;-59
2023/06/17 08:35:20;;;;;;;0.63;0.63;;;;;;;23.54;93.36;94464.00;5074806;28;20840;-59
2023/06/17 08:37:48;;;;;;;0.93;0.50;;;;;;;23.86;93.88;94487.50;5074679;28;20437;-59
2023/06/17 08:40:17;;;;;;;1.57;0.67;;;;;;;23.48;91.98;94487.13;5074653;28;20445;-59
2023/06/17 08:42:47;;;;;;;1.57;1.47;;;;;;;23.21;93.79;94489.09;5074704;28;20528;-59
2023/06/17 08:45:16;;;;;;;1.40;1.30;;;;;;;22.99;95.09;94487.28;5074700;28;20499;-59
2023/06/17 08:47:44;;;;;;;0.60;0.60;;;;;;;22.96;98.09;94494.22;5074909;28;20568;-58
2023/06/17 08:50:15;;;;;;;1.43;1.43;;;;;;;22.54;95.05;94494.38;5074562;28;20439;-58
2023/06/17 08:52:44;;;;;;;0.40;0.40;;;;;;;22.52;97.87;94502.06;5074442;28;20441;-58
2023/06/17 08:55:14;;;;;;;0.50;0.50;;;;;;;22.46;96.98;94500.06;5073737;28;20434;-57
2023/06/17 08:57:43;;;;;;;0.97;0.60;;;;;;;22.30;98.22;94500.19;5074574;28;20519;-58
2023/06/17 09:00:13;;;;;;;0.53;0.53;;;;;;;21.92;99.51;94498.44;5073653;28;20476;-58
2023/06/17 09:02:45;;;;;;;2.53;1.33;;;;;;;21.83;97.19;94502.47;5074384;28;20503;-58
2023/06/17 09:05:15;;;;;;;0.70;0.50;;;;;;;21.65;100.00;94504.09;5073632;28;20959;-58
2023/06/17 09:07:44;;;;;;;1.60;1.50;;;;;;;21.40;100.00;94517.13;5073793;28;20819;-58
2023/06/17 09:10:16;;;;;;;0.77;0.77;;;;;;;21.19;100.00;94512.09;5073793;28;20505;-58
2023/06/17 09:12:45;;;;;;;0.90;0.73;;;;;;;21.12;100.00;94528.13;5074106;28;20464;-58
2023/06/17 09:15:16;;;;;;;0.67;0.67;;;;;;;21.08;100.00;94537.25;5074053;28;20433;-58
2023/06/17 09:17:47;;;;;;;0.50;0.47;;;;;;;21.51;100.00;94545.03;5073779;28;20441;-59
2023/06/17 09:20:18;;;;;;;0.80;0.67;;;;;;;21.49;100.00;94550.81;5073779;28;20460;-58
2023/06/17 09:22:48;;;;;;;2.00;0.90;;;;;;;21.62;100.00;94547.94;5064869;28;20953;-59
2023/06/17 09:25:18;;;;;;;0.60;0.50;;;;;;;21.72;100.00;94558.16;5073780;28;20524;-59
2023/06/17 09:27:51;;;;;;;0.50;0.47;;;;;;;21.52;100.00;94487.28;5073112;28;20477;-59
2023/06/17 09:30:23;;;;;;;1.70;0.40;;;;;;;21.92;100.00;94557.78;5073454;28;20532;-59
2023/06/17 09:32:52;;;;;;;1.10;1.00;;;;;;;20.89;100.00;94563.03;5072488;28;20480;-59
2023/06/17 09:35:22;;;;;;;1.90;0.97;;;;;;;21.12;100.00;94567.75;5073910;28;20434;-59
2023/06/17 09:37:53;;;;;;;0.60;0.50;;;;;;;20.58;100.00;94575.75;5040942;28;20439;-60
2023/06/17 09:40:33;;;;;;;1.00;0.57;;;;;;;20.38;100.00;94579.53;5068946;28;20444;-60
2023/06/17 09:43:02;;;;;;;0.40;0.30;;;;;;;20.01;100.00;94549.38;5073465;28;20442;-60
2023/06/17 09:45:55;;;;;;;1.70;1.60;;;;;;;20.03;100.00;94565.97;5072729;28;20451;-60
2023/06/17 09:48:30;;;;;;;1.63;1.53;;;;;;;19.84;100.00;94576.59;5072945;28;20560;-61
2023/06/17 09:51:02;;;;;;;0.90;0.90;;;;;;;20.11;100.00;94579.22;5073197;28;20456;-60
2023/06/17 09:53:30;;;;;;;0.70;0.50;;;;;;;20.18;100.00;94587.50;5059873;28;20465;-61
2023/06/17 09:56:00;;;;;;;0.53;0.50;;;;;;;20.23;100.00;94587.25;5073225;28;20434;-60
2023/06/17 09:58:30;;;;;;;0.70;0.70;;;;;;;20.10;100.00;94582.28;5072293;28;21152;-60
2023/06/17 10:01:05;;;;;;;0.87;0.87;;;;;;;20.27;100.00;94590.81;5072990;28;20445;-59
2023/06/17 10:03:35;;;;;;;1.13;1.13;;;;;;;20.40;100.00;94586.13;5072594;28;20433;-60
2023/06/17 10:06:10;;;;;;;0.73;0.63;;;;;;;20.63;100.00;94580.88;5073287;28;20430;-60
2023/06/17 10:08:43;;;;;;;7.23;0.90;;;;;;;20.38;100.00;94574.91;5073095;28;20530;-61
2023/06/17 10:11:13;;;;;;;2.00;0.63;;;;;;;19.95;100.00;94572.28;5072639;28;20488;-62
2023/06/17 10:13:43;;;;;;;3.50;1.27;;;;;;;20.39;100.00;94581.09;5072086;28;20485;-60
2023/06/17 10:16:13;;;;;;;1.13;0.40;;;;;;;20.78;100.00;94578.16;5072433;28;20445;-60
2023/06/17 10:18:45;;;;;;;0.70;0.67;;;;;;;20.55;100.00;94574.56;5072863;28;20442;-60
2023/06/17 10:21:17;;;;;;;0.50;0.40;;;;;;;20.87;100.00;94573.34;5072579;28;20918;-60
2023/06/17 10:23:47;;;;;;;0.70;0.50;;;;;;;20.96;100.00;94570.47;5072696;28;20437;-60
2023/06/17 10:26:17;;;;;;;1.47;1.37;;;;;;;21.00;100.00;94579.41;5072485;28;20476;-60
2023/06/17 10:28:57;;;;;;;0.77;0.40;;;;;;;21.30;100.00;94577.00;5072219;28;20465;-61
2023/06/17 10:31:28;;;;;;;1.37;0.30;;;;;;;21.80;100.00;94570.63;5072250;28;20437;-60
2023/06/17 10:33:57;;;;;;;1.13;1.13;;;;;;;21.71;100.00;94575.47;5072418;28;20518;-58
2023/06/17 10:36:28;;;;;;;2.10;0.30;;;;;;;21.49;100.00;94575.06;5072757;28;20446;-60
2023/06/17 10:38:57;;;;;;;0.80;0.80;;;;;;;21.47;100.00;94566.56;5072432;28;21013;-60
2023/06/17 10:41:53;;;;;;;0.63;0.63;;;;;;;21.19;100.00;94571.38;5071906;28;21039;-60
2023/06/17 10:44:44;;;;;;;0.50;0.40;;;;;;;21.42;100.00;94569.53;5072452;28;20512;-60
2023/06/17 10:47:20;;;;;;;0.60;0.57;;;;;;;21.53;100.00;94564.34;5071854;28;20953;-60
2023/06/17 10:49:50;;;;;;;0.80;0.80;;;;;;;21.56;100.00;94568.25;5071980;28;20476;-60
2023/06/17 10:52:20;;;;;;;0.80;0.60;;;;;;;21.78;100.00;94581.75;5071328;28;20519;-60
2023/06/17 10:54:51;;;;;;;0.80;0.30;;;;;;;21.66;100.00;94576.53;5072246;28;20512;-60
2023/06/17 10:57:33;;;;;;;0.57;0.57;;;;;;;21.36;100.00;94573.66;5071999;28;20867;-59
2023/06/17 11:00:08;;;;;;;0.50;0.40;;;;;;;21.40;100.00;94579.88;5072239;28;20536;-60
2023/06/17 11:02:38;;;;;;;0.53;0.53;;;;;;;21.52;100.00;94574.38;5071421;28;20524;-60
2023/06/17 11:05:07;;;;;;;0.57;0.50;;;;;;;21.53;100.00;94564.34;5071640;28;20453;-59
2023/06/17 11:07:36;;;;;;;1.80;0.40;;;;;;;21.26;100.00;94571.53;5072053;28;20879;-60
2023/06/17 11:10:05;;;;;;;0.40;0.40;;;;;;;21.04;100.00;94571.41;5071472;28;20481;-59
2023/06/17 11:12:35;;;;;;;0.60;0.50;;;;;;;21.19;100.00;94584.84;5072146;28;20918;-59
2023/06/17 11:15:09;;;;;;;0.70;0.63;;;;;;;21.21;100.00;94584.50;5045186;28;20957;-59
2023/06/17 11:17:37;;;;;;;0.43;0.30;;;;;;;21.17;100.00;94576.34;5070483;28;20935;-59
2023/06/17 11:20:06;;;;;;;0.50;0.33;;;;;;;21.56;100.00;94585.19;5060009;28;20434;-60
2023/06/17 11:22:38;;;;;;;0.50;0.40;;;;;;;21.71;100.00;94565.47;5071550;28;20445;-60
2023/06/17 11:25:07;;;;;;;0.40;0.30;;;;;;;21.59;100.00;94572.91;5071802;28;20444;-60
2023/06/17 11:27:38;;;;;;;0.50;0.50;;;;;;;21.64;100.00;94569.94;5071443;28;20999;-60
2023/06/17 11:30:10;;;;;;;0.50;0.30;;;;;;;22.20;100.00;94565.59;5072004;28;20851;-60
2023/06/17 11:32:41;;;;;;;0.70;0.63;;;;;;;22.17;100.00;94565.53;5071683;28;21064;-61
2023/06/17 11:35:10;;;;;;;1.80;0.40;;;;;;;22.20;100.00;94565.59;5059545;28;20438;-61
2023/06/17 11:37:39;;;;;;;0.40;0.40;;;;;;;22.08;100.00;94550.38;5071356;28;20434;-59